Hastings, United Kingdom
Current Conditions -  °F | °C
As of 4:50 PM on Thursday 23 Oct 2014 (Local Time) from EGMD Reporting Station
Moderate Rain Moderate Rain  
Wind Chill: 59°   Ceiling: 1500
Heat Index: 59°   Visibility: 3mi
Dew Point: 57°   Wind: 20mph
Humidity: 94%   Direction: 220°SW
Pressure: 30.12"   Gusts: NA
Location:  50.86°N, 0.57°E
Report Text: EGMD 231550Z 22017KT 5000 RADZ SCT005 BKN015 15/14 Q1020
Loading
Personal Weather Stations






























Interactive Weather Map New forecast layout! Learn more

10-Day Weather Forecast

Advertisements
Track Severe Weather on mobile